Time;durP1;ratioP1;P1;durP2;ratioP2;P2;SDS_P1;SDS_P2;PMS_P1;PMS_P2;Temp;Humidity;BMP_temperature;BMP_pressure;BME280_temperature;BME280_humidity;BME280_pressure;Samples;Min_cycle;Max_cycle;Signal;HPM_P1;HPM_P2
2022/12/16 00:00:12;;;;;;;399.10;281.38;;;;;;;24.25;33.07;100862.75;5075578;28;20097;-50
2022/12/16 00:02:41;;;;;;;398.88;283.23;;;;;;;24.27;33.14;100861.03;5076059;28;20017;-50
2022/12/16 00:05:10;;;;;;;405.80;280.92;;;;;;;24.20;32.96;100861.81;5076139;28;20025;-53
2022/12/16 00:07:39;;;;;;;414.77;289.80;;;;;;;24.19;33.07;100866.19;5075783;28;20028;-52
2022/12/16 00:10:08;;;;;;;409.33;287.15;;;;;;;24.19;33.06;100863.56;5074291;28;20482;-53
2022/12/16 00:12:37;;;;;;;404.58;284.73;;;;;;;24.17;33.26;100867.03;5075485;28;20029;-54
2022/12/16 00:15:06;;;;;;;412.98;288.80;;;;;;;24.16;33.40;100868.78;5075657;28;20500;-43
2022/12/16 00:17:35;;;;;;;402.20;290.23;;;;;;;24.14;33.29;100869.63;5075639;28;20037;-50
2022/12/16 00:20:04;;;;;;;395.85;280.13;;;;;;;24.13;33.47;100868.75;5075442;28;20028;-51
2022/12/16 00:22:32;;;;;;;397.70;282.73;;;;;;;24.12;33.41;100874.84;5074368;28;20017;-49
2022/12/16 00:25:01;;;;;;;401.85;282.77;;;;;;;24.12;33.19;100874.84;5075529;28;20093;-52
2022/12/16 00:27:30;;;;;;;403.58;281.15;;;;;;;24.12;33.46;100880.09;5074128;28;20024;-49
2022/12/16 00:29:58;;;;;;;384.92;274.90;;;;;;;24.15;32.89;100881.88;5075130;28;20021;-53
2022/12/16 00:32:27;;;;;;;401.58;282.75;;;;;;;24.09;33.29;100873.06;5075312;28;20078;-51
2022/12/16 00:34:56;;;;;;;398.83;281.27;;;;;;;24.09;33.03;100880.94;5075210;28;20462;-50
2022/12/16 00:37:27;;;;;;;404.17;281.13;;;;;;;24.08;33.12;100878.28;5075098;28;20501;-44
2022/12/16 00:39:55;;;;;;;403.88;286.77;;;;;;;24.09;33.29;100880.03;5075140;28;20466;-54
2022/12/16 00:42:24;;;;;;;412.90;287.83;;;;;;;24.10;33.27;100879.19;5075070;28;20394;-51
2022/12/16 00:44:52;;;;;;;403.92;285.25;;;;;;;24.09;33.00;100880.03;5074983;28;20474;-44
2022/12/16 00:47:21;;;;;;;398.25;283.38;;;;;;;24.08;33.23;100876.56;5074768;28;20382;-47
2022/12/16 00:49:50;;;;;;;404.05;286.75;;;;;;;24.07;33.01;100877.41;5074951;28;20032;-54
2022/12/16 00:52:18;;;;;;;409.08;288.95;;;;;;;24.04;33.02;100874.75;5074916;28;20024;-47
2022/12/16 00:54:48;;;;;;;396.67;282.92;;;;;;;24.05;33.17;100875.66;5074567;28;20021;-54
2022/12/16 00:57:16;;;;;;;390.85;276.40;;;;;;;24.06;33.12;100880.03;5074622;28;20037;-54
2022/12/16 00:59:45;;;;;;;402.20;276.52;;;;;;;24.01;33.22;100874.72;5074858;28;20036;-54
2022/12/16 01:02:13;;;;;;;389.00;270.05;;;;;;;23.98;33.25;100882.56;5074490;28;20017;-47
2022/12/16 01:04:42;;;;;;;388.33;269.05;;;;;;;23.99;32.88;100881.72;5073361;28;20020;-44
2022/12/16 01:07:10;;;;;;;386.08;266.08;;;;;;;23.99;32.60;100883.44;5073267;28;20115;-51
2022/12/16 01:09:39;;;;;;;379.73;264.65;;;;;;;23.97;32.93;100884.28;5074811;28;20113;-53
2022/12/16 01:12:08;;;;;;;369.88;253.52;;;;;;;23.98;32.82;100882.56;5073011;28;20497;-52
2022/12/16 01:14:36;;;;;;;369.88;255.02;;;;;;;23.98;32.41;100882.56;5074522;28;20029;-53
2022/12/16 01:17:05;;;;;;;363.45;252.05;;;;;;;23.93;32.61;100887.69;5074291;28;20044;-48
2022/12/16 01:19:34;;;;;;;351.70;245.10;;;;;;;23.94;32.63;100888.59;5074270;28;20469;-45
2022/12/16 01:22:03;;;;;;;346.95;235.82;;;;;;;23.89;32.32;100893.78;5074235;28;20112;-54
2022/12/16 01:24:31;;;;;;;333.88;231.35;;;;;;;23.93;32.41;100899.94;5074142;28;20113;-51
2022/12/16 01:26:59;;;;;;;327.55;226.30;;;;;;;23.88;32.32;100901.59;5074042;28;20036;-53
2022/12/16 01:29:28;;;;;;;317.92;215.73;;;;;;;23.85;32.69;100899.84;5073847;28;20020;-50
2022/12/16 01:31:57;;;;;;;305.13;215.07;;;;;;;23.88;32.28;100902.50;5074020;28;20029;-54
2022/12/16 01:34:24;;;;;;;288.27;207.70;;;;;;;23.86;32.53;100908.56;5074029;28;20114;-53
2022/12/16 01:36:53;;;;;;;289.42;202.98;;;;;;;23.87;32.05;100905.09;5073389;28;20406;-53
2022/12/16 01:39:21;;;;;;;283.58;196.10;;;;;;;23.88;32.22;100914.69;5073749;28;20370;-52
2022/12/16 01:41:50;;;;;;;277.42;193.20;;;;;;;23.87;32.40;100911.22;5072436;28;20037;-52
2022/12/16 01:44:22;;;;;;;276.30;191.85;;;;;;;23.83;32.13;100919.88;5073704;28;20024;-52
2022/12/16 01:46:56;;;;;;;280.90;191.65;;;;;;;23.82;31.86;100926.88;5073082;28;20028;-48
2022/12/16 01:50:02;;;;;;;267.70;185.43;;;;;;;23.80;32.12;100940.81;5073685;28;20052;-53
2022/12/16 01:52:34;;;;;;;258.90;181.35;;;;;;;23.78;32.25;100943.41;5072343;28;20029;-49
2022/12/16 01:55:08;;;;;;;257.27;177.73;;;;;;;23.77;31.90;100941.66;5073344;28;20025;-51
2022/12/16 01:57:50;;;;;;;247.63;169.57;;;;;;;23.74;31.85;100946.84;5072484;28;20385;-50
2022/12/16 02:00:18;;;;;;;240.73;170.05;;;;;;;23.74;31.83;100951.22;5073390;28;20032;-47
2022/12/16 02:02:48;;;;;;;248.50;168.68;;;;;;;23.74;31.99;100952.06;5073296;28;20051;-50
2022/12/16 02:05:20;;;;;;;241.85;167.20;;;;;;;23.74;31.72;100959.94;5073478;28;20028;-51
2022/12/16 02:08:17;;;;;;;232.00;162.93;;;;;;;23.70;32.16;100957.25;5072825;28;20040;-50
2022/12/16 02:11:12;;;;;;;233.88;159.43;;;;;;;23.67;31.98;100966.84;5072095;28;20050;-50
2022/12/16 02:13:42;;;;;;;242.07;158.05;;;;;;;23.68;31.70;100965.06;5069788;28;20032;-47
2022/12/16 02:16:21;;;;;;;226.20;153.02;;;;;;;23.63;31.57;100969.38;5073200;28;20081;-49
2022/12/16 02:19:28;;;;;;;221.27;154.00;;;;;;;23.62;31.55;100976.34;5071904;28;20478;-50
2022/12/16 02:22:05;;;;;;;;;;;;;;;23.65;31.77;100981.63;5072692;28;20032;-53
2022/12/16 02:25:03;;;;;;;227.30;150.30;;;;;;;23.68;31.37;100975.56;5071892;28;19912;-45
2022/12/16 02:27:32;;;;;;;216.80;145.75;;;;;;;23.62;31.34;100984.22;5073178;28;20021;-47
2022/12/16 02:30:20;;;;;;;218.10;145.30;;;;;;;23.56;31.63;100985.84;5073370;28;20396;-46
2022/12/16 02:33:10;;;;;;;201.25;136.75;;;;;;;23.56;31.69;100992.00;5066390;28;20040;-48
2022/12/16 02:36:07;;;;;;;202.10;139.38;;;;;;;23.54;31.50;100995.41;5067473;28;20039;-51
2022/12/16 02:38:57;;;;;;;203.63;136.02;;;;;;;23.54;31.55;101000.66;5068426;28;20120;-53
2022/12/16 02:41:45;;;;;;;195.13;132.30;;;;;;;23.50;31.35;101004.97;5062272;28;20029;-49
2022/12/16 02:44:14;;;;;;;192.10;133.50;;;;;;;23.50;31.33;100995.38;5066401;28;20052;-54
2022/12/16 02:46:52;;;;;;;193.02;129.48;;;;;;;23.50;31.11;101018.06;5071417;28;20401;-48
2022/12/16 02:49:20;;;;;;;180.75;124.00;;;;;;;23.49;31.51;101019.81;5072803;28;20063;-52
2022/12/16 02:51:50;;;;;;;183.27;124.50;;;;;;;23.42;31.19;101022.28;5073026;28;20036;-53
2022/12/16 02:54:19;;;;;;;173.32;117.90;;;;;;;23.42;31.09;101022.28;5073007;28;20111;-52
2022/12/16 02:57:25;;;;;;;172.73;113.68;;;;;;;23.41;31.46;101021.41;5071495;28;20493;-53
2022/12/16 03:00:01;;;;;;;151.82;106.22;;;;;;;23.41;30.89;101031.03;5072080;28;20075;-53
2022/12/16 03:02:51;;;;;;;151.30;107.80;;;;;;;23.38;31.23;101041.44;5071515;28;20024;-52
2022/12/16 03:05:29;;;;;;;151.10;105.05;;;;;;;23.34;31.08;101044.00;5072871;28;20032;-53
2022/12/16 03:07:59;;;;;;;143.18;97.95;;;;;;;23.35;30.80;101043.16;5072722;28;20382;-47
2022/12/16 03:10:34;;;;;;;145.00;100.38;;;;;;;23.31;30.72;101038.72;5072192;28;20094;-44
2022/12/16 03:13:03;;;;;;;135.95;93.90;;;;;;;23.31;30.96;101040.47;5070974;28;20485;-52
2022/12/16 03:15:33;;;;;;;130.50;90.97;;;;;;;23.30;31.29;101036.06;5071374;28;20031;-43
2022/12/16 03:18:03;;;;;;;128.60;87.65;;;;;;;23.30;30.83;101041.31;5072402;28;20093;-49
2022/12/16 03:20:34;;;;;;;130.88;90.05;;;;;;;23.23;31.11;101029.84;5071948;28;20036;-50
2022/12/16 03:23:07;;;;;;;126.15;85.85;;;;;;;23.24;30.78;101033.34;5072630;28;20085;-53
2022/12/16 03:25:38;;;;;;;125.35;84.90;;;;;;;23.20;30.79;101038.53;5071426;28;20497;-52
2022/12/16 03:28:13;;;;;;;122.13;81.10;;;;;;;23.19;30.75;101038.47;5071528;28;20082;-47
2022/12/16 03:30:47;;;;;;;115.95;80.22;;;;;;;23.16;31.02;101035.78;5072590;28;20064;-53
2022/12/16 03:33:37;;;;;;;109.43;78.20;;;;;;;23.13;30.77;101040.97;5070914;28;20025;-52
2022/12/16 03:36:12;;;;;;;107.75;76.22;;;;;;;23.08;30.52;101029.56;5047461;28;20661;-48
2022/12/16 03:38:41;;;;;;;106.95;73.03;;;;;;;23.12;30.83;101039.19;5071306;28;20036;-53
2022/12/16 03:41:10;;;;;;;105.65;73.40;;;;;;;23.05;30.63;101046.06;5072341;28;20032;-50
2022/12/16 03:43:39;;;;;;;102.93;73.18;;;;;;;23.03;30.83;101040.81;5071338;28;20020;-51
2022/12/16 03:46:09;;;;;;;102.80;69.63;;;;;;;23.06;30.50;101047.84;5071330;28;20028;-52
2022/12/16 03:48:45;;;;;;;100.80;69.78;;;;;;;23.07;30.34;101044.34;5072264;28;20032;-47
2022/12/16 03:51:13;;;;;;;102.93;69.55;;;;;;;23.06;30.52;101048.72;5072301;28;20036;-53
2022/12/16 03:53:42;;;;;;;102.15;70.68;;;;;;;23.05;30.02;101040.84;5072185;28;20416;-53
2022/12/16 03:56:11;;;;;;;102.68;68.05;;;;;;;23.00;30.61;101046.00;5073133;28;20036;-52
2022/12/16 03:58:40;;;;;;;97.85;66.20;;;;;;;22.99;30.43;101039.00;5075699;28;20035;-48
2022/12/16 04:01:09;;;;;;;97.85;67.82;;;;;;;23.00;30.63;101061.69;5075729;28;20365;-53
2022/12/16 04:03:39;;;;;;;95.60;66.55;;;;;;;22.92;30.48;101056.31;5075630;28;20395;-49
2022/12/16 04:06:07;;;;;;;95.53;63.88;;;;;;;22.97;30.12;101061.63;5075551;28;20028;-44
2022/12/16 04:08:36;;;;;;;89.30;62.33;;;;;;;22.95;30.30;101062.47;5075583;28;20039;-46
2022/12/16 04:25:14;;;;;;;83.82;58.75;;;;;;;22.82;29.93;101069.19;5057573;28;20066;-43
2022/12/16 04:27:45;;;;;;;82.55;57.55;;;;;;;22.84;30.25;101077.94;5075420;28;20032;-48
2022/12/16 04:30:20;;;;;;;87.68;57.22;;;;;;;22.77;30.01;101077.81;5073912;28;20103;-49
